Terminal Aerodrome Forecast
Issued by NWS Central Illinois

Home | Current Version | Previous Version | Text Only | Print | Product List | Glossary On
Versions: 1 2 3 4 5 6 7 8 9 10 11 12 13 14 15 16 17
000
FTUS43 KILX 190800 AAA
TAFPIA
TAF AMD
KPIA 190830Z 1908/2006 12003KT P6SM SKC
      TEMPO 1910/1912 4SM BR
     FM191400 16008KT P6SM FEW040
     FM200000 18008KT P6SM BKN250=

USA.gov is the U.S. government's official web portal to all federal, state and local government web resources and services.